Terminal Aerodrome Forecast
Issued by NWS

Home | Current Version | Previous Version | Text Only | Print | Product List | Glossary On
Versions: 1 2 3 4 5 6 7 8 9 10 11 12 13 14 15 16 17 18 19 20 21 22 23 24 25 26 27 28 29 30 31 32 33 34 35 36 37 38 39 40 41 42 43 44 45 46 47 48 49 50
000
FTUS44 KHGX 241250
TAFUTS
TAFUTS
TAF AMD
KUTS 241250Z 2413/2512 VRB05KT 1SM +TSRA BR VCTS FEW008 BKN023CB
      OVC045
     FM241330 16009KT 4SM -TSRA BR BKN020CB OVC250
     FM241500 16007KT P6SM BKN035 OVC250
     FM241800 17010KT P6SM VCSH BKN035 BKN250
     FM242100 17011KT P6SM VCTS BKN030CB OVC250 PROB30 2422/2501
      TSRA
     FM250100 16008KT P6SM BKN050 OVC250
     FM250300 16008KT P6SM VCTS BKN030CB OVC250
      TEMPO 2509/2512 3SM TSRA BKN015 OVC030CB=

USA.gov is the U.S. government's official web portal to all federal, state and local government web resources and services.